MMCL/CUL METAR and TAF weather

Enter ICAO airport designator
Station Type Date Time Source
MMCL METAR 2020/08/05 15:40 UTC NOAA

MMCL 051540Z 13004KT 10SM FEW015 SCT230 32/25 A2988 RMK 8/104


Station Type Date Time Source
MMCL Decoded METAR 2020/08/05 15:40 UTC NOAA

Culiacan, Sin., Mexico (MMCL) 24-49N 107-24W
Aug 05, 2020 - 11:40 AM EDT / 2020.08.05 1540 UTC
Wind: from the SE (130 degrees) at 5 MPH (4 KT):0
Visibility: 10 mile(s):0
Sky conditions: partly cloudy
Temperature: 89 F (32 C)
Heat index: 100.6 F (38.1 C):1
Dew Point: 77 F (25 C)
Relative Humidity: 66%
Pressure (altimeter): 29.88 in. Hg (1011 hPa)
ob: MMCL 051540Z 13004KT 10SM FEW015 SCT230 32/25 A2988 RMK 8/104
cycle: 15

Station Type Date Time Source
MMCL TAF 2020/08/05 06:20 UTC NOAA

TAF MMCL 050513Z 0506/0606 00000KT P6SM SCT100
FM051800 23010KT P6SM SCT020 BKN240
FM060000 23005KT P6SM BKN240

Example: see airport list